SJX417 RCKH-RCTP
Flight info
| Callsign | SJX417 |
|---|---|
| Flight time | N/A |
| Altitude | 22000 |
| Route | TNN1C TNN TNN1B |
| Aircraft | A339/H-SADE1E2E3GHIJ3J5M1P2RWXY/LB2D1 |
Departure
| Time | 2026-04-29 07:34 |
|---|---|
| Airport | Kaohsiung International Airport (RCKH) |
Arrival
| Time | N/A |
|---|---|
| Airport | Taiwan Taoyuan International Airport (RCTP) |
| Time | Latitude | Longitude | Altitude | Speed | Heading |
|---|---|---|---|---|---|
| 2026-04-29 07:20 | 22.57480 | 120.34328 | 44 ft | 0 kts | 2° |
| 2026-04-29 07:25 | 22.57465 | 120.34328 | 42 ft | 2 kts | 5° |
| 2026-04-29 07:25 | 22.57449 | 120.34328 | 43 ft | 2 kts | 327° |
| 2026-04-29 07:25 | 22.57442 | 120.34333 | 42 ft | 2 kts | 8° |
| 2026-04-29 07:25 | 22.57426 | 120.34329 | 43 ft | 2 kts | 0° |
| 2026-04-29 07:26 | 22.57409 | 120.34330 | 40 ft | 2 kts | 302° |
| 2026-04-29 07:26 | 22.57402 | 120.34342 | 42 ft | 0 kts | 272° |
| 2026-04-29 07:28 | 22.57402 | 120.34320 | 39 ft | 5 kts | 271° |
| 2026-04-29 07:28 | 22.57404 | 120.34278 | 40 ft | 7 kts | 272° |
| 2026-04-29 07:28 | 22.57405 | 120.34220 | 44 ft | 9 kts | 271° |
| 2026-04-29 07:28 | 22.57407 | 120.34164 | 44 ft | 0 kts | 271° |
| 2026-04-29 07:29 | 22.57407 | 120.34144 | 44 ft | 5 kts | 271° |
| 2026-04-29 07:29 | 22.57410 | 120.34094 | 44 ft | 8 kts | 271° |
| 2026-04-29 07:29 | 22.57411 | 120.34028 | 44 ft | 10 kts | 271° |
| 2026-04-29 07:29 | 22.57412 | 120.33950 | 44 ft | 11 kts | 271° |
| 2026-04-29 07:30 | 22.57416 | 120.33860 | 44 ft | 13 kts | 271° |
| 2026-04-29 07:30 | 22.57418 | 120.33758 | 44 ft | 14 kts | 271° |
| 2026-04-29 07:30 | 22.57453 | 120.33667 | 44 ft | 13 kts | 317° |
| 2026-04-29 07:31 | 22.57592 | 120.33522 | 44 ft | 11 kts | 317° |
| 2026-04-29 07:31 | 22.57637 | 120.33504 | 44 ft | 0 kts | 353° |
| 2026-04-29 07:32 | 22.57652 | 120.33503 | 44 ft | 6 kts | 357° |
| 2026-04-29 07:32 | 22.57706 | 120.33504 | 43 ft | 9 kts | 0° |
| 2026-04-29 07:33 | 22.57751 | 120.33539 | 41 ft | 8 kts | 64° |
| 2026-04-29 07:33 | 22.57752 | 120.33578 | 44 ft | 0 kts | 92° |
| 2026-04-29 07:33 | 22.57751 | 120.33600 | 44 ft | 21 kts | 92° |
| 2026-04-29 07:33 | 22.57735 | 120.34110 | 44 ft | 113 kts | 91° |
| 2026-04-29 07:34 | 22.57701 | 120.35240 | 76 ft | 181 kts | 92° |
| 2026-04-29 07:34 | 22.57603 | 120.36622 | 804 ft | 187 kts | 104° |
| 2026-04-29 07:34 | 22.55471 | 120.38664 | 2127 ft | 222 kts | 171° |
| 2026-04-29 07:35 | 22.53923 | 120.38488 | 2888 ft | 228 kts | 201° |
| 2026-04-29 07:35 | 22.52643 | 120.37493 | 3738 ft | 230 kts | 230° |
| 2026-04-29 07:35 | 22.51759 | 120.36060 | 4658 ft | 229 kts | 238° |
| 2026-04-29 07:35 | 22.50906 | 120.34595 | 5481 ft | 234 kts | 237° |
| 2026-04-29 07:36 | 22.49950 | 120.33154 | 6239 ft | 239 kts | 229° |
| 2026-04-29 07:36 | 22.48771 | 120.31875 | 6986 ft | 242 kts | 224° |
| 2026-04-29 07:36 | 22.47543 | 120.30611 | 7765 ft | 244 kts | 223° |
| 2026-04-29 07:36 | 22.46310 | 120.29335 | 8546 ft | 246 kts | 224° |
| 2026-04-29 07:37 | 22.45072 | 120.28053 | 9336 ft | 247 kts | 224° |
| 2026-04-29 07:37 | 22.43830 | 120.26770 | 10110 ft | 247 kts | 224° |
| 2026-04-29 07:37 | 22.42570 | 120.25508 | 10893 ft | 246 kts | 221° |
| 2026-04-29 07:37 | 22.41246 | 120.24330 | 11622 ft | 247 kts | 218° |
| 2026-04-29 07:38 | 22.40350 | 120.23561 | 12067 ft | 249 kts | 218° |
| 2026-04-29 07:38 | 22.38985 | 120.22384 | 12717 ft | 252 kts | 219° |
| 2026-04-29 07:38 | 22.37661 | 120.21104 | 13149 ft | 264 kts | 232° |
| 2026-04-29 07:38 | 22.36922 | 120.19226 | 13350 ft | 285 kts | 263° |
| 2026-04-29 07:39 | 22.37168 | 120.17050 | 13542 ft | 306 kts | 291° |
| 2026-04-29 07:39 | 22.39008 | 120.14637 | 13789 ft | 333 kts | 326° |
| 2026-04-29 07:39 | 22.41147 | 120.13527 | 13982 ft | 351 kts | 339° |
| 2026-04-29 07:39 | 22.42719 | 120.12919 | 14186 ft | 359 kts | 341° |
| 2026-04-29 07:40 | 22.45884 | 120.11803 | 14952 ft | 363 kts | 342° |
| 2026-04-29 07:40 | 22.47515 | 120.11240 | 15344 ft | 365 kts | 342° |
| 2026-04-29 07:40 | 22.49951 | 120.10400 | 15906 ft | 369 kts | 342° |
| 2026-04-29 07:40 | 22.52407 | 120.09552 | 16471 ft | 372 kts | 342° |
| 2026-04-29 07:41 | 22.54881 | 120.08695 | 17018 ft | 375 kts | 342° |
| 2026-04-29 07:41 | 22.57381 | 120.07827 | 17553 ft | 378 kts | 342° |
| 2026-04-29 07:41 | 22.59928 | 120.07094 | 18048 ft | 382 kts | 352° |
| 2026-04-29 07:41 | 22.62550 | 120.07142 | 18584 ft | 385 kts | 9° |
| 2026-04-29 07:42 | 22.65094 | 120.08034 | 19108 ft | 388 kts | 25° |
| 2026-04-29 07:42 | 22.67521 | 120.09348 | 19582 ft | 391 kts | 24° |
| 2026-04-29 07:42 | 22.70068 | 120.10403 | 20095 ft | 394 kts | 18° |
| 2026-04-29 07:42 | 22.72719 | 120.11215 | 20614 ft | 397 kts | 14° |
| 2026-04-29 07:43 | 22.75421 | 120.11892 | 21112 ft | 400 kts | 12° |
| 2026-04-29 07:43 | 22.78155 | 120.12518 | 21624 ft | 403 kts | 12° |
| 2026-04-29 07:43 | 22.80911 | 120.13135 | 21919 ft | 406 kts | 12° |
| 2026-04-29 07:43 | 22.83695 | 120.13761 | 21995 ft | 413 kts | 12° |
| 2026-04-29 07:44 | 22.86542 | 120.14409 | 21999 ft | 420 kts | 12° |
| 2026-04-29 07:44 | 22.89398 | 120.15065 | 21999 ft | 419 kts | 12° |
| 2026-04-29 07:44 | 22.92248 | 120.15721 | 22004 ft | 419 kts | 12° |
| 2026-04-29 07:44 | 22.95100 | 120.16379 | 21999 ft | 419 kts | 12° |
| 2026-04-29 07:45 | 22.97962 | 120.17040 | 22002 ft | 419 kts | 12° |
| 2026-04-29 07:45 | 23.00809 | 120.17697 | 22001 ft | 419 kts | 12° |
| 2026-04-29 07:45 | 23.03655 | 120.18353 | 21999 ft | 419 kts | 12° |
| 2026-04-29 07:45 | 23.06509 | 120.19012 | 22000 ft | 419 kts | 12° |
| 2026-04-29 07:46 | 23.09364 | 120.19671 | 21999 ft | 419 kts | 12° |
| 2026-04-29 07:46 | 23.12218 | 120.20330 | 22002 ft | 419 kts | 12° |
| 2026-04-29 07:46 | 23.15093 | 120.20842 | 22000 ft | 419 kts | 6° |
| 2026-04-29 07:46 | 23.17988 | 120.21166 | 21999 ft | 419 kts | 6° |
| 2026-04-29 07:47 | 23.20883 | 120.21501 | 21999 ft | 419 kts | 6° |
| 2026-04-29 07:47 | 23.23784 | 120.21845 | 22001 ft | 419 kts | 6° |
| 2026-04-29 07:47 | 23.26685 | 120.22190 | 22000 ft | 419 kts | 6° |
| 2026-04-29 07:47 | 23.29556 | 120.22533 | 22000 ft | 419 kts | 6° |
| 2026-04-29 07:48 | 23.32457 | 120.22880 | 21999 ft | 419 kts | 6° |
| 2026-04-29 07:48 | 23.35356 | 120.23226 | 21999 ft | 419 kts | 6° |